Time;durP1;ratioP1;P1;durP2;ratioP2;P2;SDS_P1;SDS_P2;PMS_P1;PMS_P2;Temp;Humidity;BMP_temperature;BMP_pressure;BME280_temperature;BME280_humidity;BME280_pressure;Samples;Min_cycle;Max_cycle;Signal;HPM_P1;HPM_P2
2022/08/05 00:01:31;;;;;;;4.87;4.57;;;30.80;60.90;;;;;;5078773;28;20525;-71
2022/08/05 00:04:15;;;;;;;5.33;4.93;;;30.70;61.00;;;;;;5083316;28;20791;-71
2022/08/05 00:06:44;;;;;;;4.00;3.77;;;30.70;61.00;;;;;;5077107;28;20481;-71
2022/08/05 00:09:20;;;;;;;4.77;4.47;;;30.70;61.10;;;;;;5094235;28;20820;-71
2022/08/05 00:11:49;;;;;;;4.80;4.50;;;30.60;61.00;;;;;;5094211;28;20498;-71
2022/08/05 00:14:27;;;;;;;5.27;4.77;;;30.60;61.10;;;;;;5073892;28;20449;-71
2022/08/05 00:16:59;;;;;;;5.50;4.37;;;30.60;61.10;;;;;;5077722;28;20495;-71
2022/08/05 00:19:29;;;;;;;5.17;4.53;;;30.60;61.10;;;;;;5095035;28;20441;-71
2022/08/05 00:22:07;;;;;;;5.33;4.93;;;30.60;61.10;;;;;;5090784;28;20546;-71
2022/08/05 00:24:40;;;;;;;4.40;4.10;;;30.60;61.10;;;;;;5074141;28;20437;-72
2022/08/05 00:27:09;;;;;;;4.53;4.13;;;30.60;61.20;;;;;;5083044;28;20538;-69
2022/08/05 00:29:43;;;;;;;4.83;4.43;;;30.60;61.10;;;;;;5094893;28;20963;-70
2022/08/05 00:32:12;;;;;;;4.93;4.53;;;30.60;61.10;;;;;;5069437;28;20495;-70
2022/08/05 00:34:44;;;;;;;4.83;4.53;;;30.60;61.10;;;;;;5072207;28;20476;-69
2022/08/05 00:37:32;;;;;;;4.80;4.40;;;30.60;61.00;;;;;;5074555;28;20440;-70
2022/08/05 00:40:23;;;;;;;4.77;4.47;;;30.60;61.00;;;;;;5085590;28;20449;-70
2022/08/05 00:42:57;;;;;;;4.67;4.37;;;30.60;61.00;;;;;;5084529;28;20812;-70
2022/08/05 00:45:25;;;;;;;4.87;4.50;;;30.60;61.00;;;;;;5080210;28;20444;-70
2022/08/05 00:48:10;;;;;;;4.40;4.13;;;30.60;61.10;;;;;;5094174;28;20445;-70
2022/08/05 00:50:40;;;;;;;6.63;4.00;;;30.60;61.10;;;;;;5094463;28;20425;-70
2022/08/05 00:53:14;;;;;;;5.07;4.77;;;30.60;61.10;;;;;;5081108;28;20504;-70
2022/08/05 00:56:07;;;;;;;4.90;4.50;;;30.60;61.10;;;;;;5074125;28;20446;-70
2022/08/05 00:58:38;;;;;;;5.13;4.73;;;30.50;61.10;;;;;;5073966;28;20446;-70
2022/08/05 01:01:14;;;;;;;4.70;4.40;;;30.50;61.10;;;;;;5074097;28;20789;-70
2022/08/05 01:03:51;;;;;;;5.03;4.73;;;30.50;61.10;;;;;;5073739;28;20915;-70
2022/08/05 01:06:20;;;;;;;4.50;4.20;;;30.50;61.10;;;;;;5054018;28;20481;-70
2022/08/05 01:08:59;;;;;;;4.90;4.53;;;30.50;61.10;;;;;;5059648;28;20567;-70
2022/08/05 01:11:35;;;;;;;4.83;4.37;;;30.50;61.10;;;;;;5093895;28;20858;-70
2022/08/05 01:14:11;;;;;;;5.70;4.53;;;30.50;61.10;;;;;;5074457;28;20449;-70
2022/08/05 01:16:48;;;;;;;4.93;4.47;;;30.50;61.10;;;;;;5072548;28;20473;-70
2022/08/05 01:19:34;;;;;;;5.13;4.83;;;30.50;61.20;;;;;;5053228;28;20485;-70
2022/08/05 01:22:36;;;;;;;5.07;4.73;;;30.50;61.20;;;;;;5057509;28;20449;-70
2022/08/05 01:25:29;;;;;;;5.10;4.80;;;30.40;61.20;;;;;;5076664;28;20455;-70
2022/08/05 01:28:24;;;;;;;5.23;4.83;;;30.40;61.30;;;;;;5093787;28;20918;-70
2022/08/05 01:30:56;;;;;;;5.30;4.90;;;30.40;61.30;;;;;;5093724;28;20563;-70
2022/08/05 01:33:31;;;;;;;4.43;4.23;;;30.40;61.30;;;;;;5079538;28;20454;-70
2022/08/05 01:36:09;;;;;;;5.40;5.00;;;30.40;61.20;;;;;;5073543;28;20422;-70
2022/08/05 01:38:46;;;;;;;5.83;4.97;;;30.40;61.20;;;;;;5074115;28;20449;-70
2022/08/05 01:41:22;;;;;;;4.63;4.30;;;30.40;61.30;;;;;;5094086;28;20495;-70
2022/08/05 01:43:56;;;;;;;5.47;5.07;;;30.40;61.30;;;;;;5076196;28;20516;-70
2022/08/05 01:46:25;;;;;;;5.83;4.87;;;30.40;61.30;;;;;;5073592;28;20422;-70
2022/08/05 01:49:18;;;;;;;5.30;4.90;;;30.40;61.30;;;;;;5072488;28;20488;-70
2022/08/05 01:52:02;;;;;;;5.47;4.97;;;30.40;61.30;;;;;;5075915;28;20477;-70
2022/08/05 01:54:49;;;;;;;5.10;4.80;;;30.40;61.30;;;;;;5065438;28;20491;-70
2022/08/05 01:57:25;;;;;;;5.00;4.50;;;30.40;61.30;;;;;;5072244;28;20508;-70
2022/08/05 02:00:15;;;;;;;5.93;5.53;;;30.40;61.30;;;;;;5072858;28;20454;-69
2022/08/05 02:02:48;;;;;;;4.93;4.63;;;30.40;61.30;;;;;;5079966;28;20511;-69
2022/08/05 02:05:27;;;;;;;4.80;4.50;;;30.40;61.40;;;;;;5075387;28;20977;-69
2022/08/05 02:07:56;;;;;;;5.10;4.80;;;30.40;61.30;;;;;;5092809;28;20437;-70
2022/08/05 02:10:33;;;;;;;5.70;5.23;;;30.40;61.30;;;;;;5089822;28;20465;-70
2022/08/05 02:13:06;;;;;;;4.70;4.30;;;30.40;61.30;;;;;;5072227;28;20468;-69
2022/08/05 02:15:49;;;;;;;6.07;5.67;;;30.40;61.30;;;;;;5068253;28;20441;-69
2022/08/05 02:18:24;;;;;;;5.80;5.30;;;30.40;61.20;;;;;;5092042;28;20492;-69
2022/08/05 02:21:09;;;;;;;5.37;5.07;;;30.50;61.00;;;;;;5086847;28;20460;-70
2022/08/05 02:23:46;;;;;;;5.20;4.80;;;30.50;61.00;;;;;;5075076;28;20936;-70
2022/08/05 02:26:20;;;;;;;5.73;5.30;;;30.50;61.10;;;;;;5072309;28;20427;-70
2022/08/05 02:28:53;;;;;;;5.80;5.40;;;30.40;61.10;;;;;;5072044;28;20473;-70
2022/08/05 02:31:26;;;;;;;4.37;4.17;;;30.50;61.00;;;;;;5074736;28;20480;-70
2022/08/05 02:34:04;;;;;;;4.73;4.43;;;30.50;60.90;;;;;;5059033;28;20471;-69
2022/08/05 02:36:38;;;;;;;4.87;4.57;;;30.50;61.00;;;;;;5079182;28;20608;-70
2022/08/05 02:39:09;;;;;;;5.40;5.00;;;30.40;61.00;;;;;;5091318;28;20448;-70
2022/08/05 02:41:38;;;;;;;4.80;4.40;;;30.40;61.10;;;;;;5081531;28;20800;-69
2022/08/05 02:44:28;;;;;;;4.80;4.50;;;30.40;61.10;;;;;;5079935;28;20476;-69
2022/08/05 02:46:59;;;;;;;5.30;4.90;;;30.40;61.10;;;;;;5092946;28;20475;-69
2022/08/05 02:49:32;;;;;;;5.10;4.70;;;30.40;61.00;;;;;;5092181;28;20520;-69
2022/08/05 02:52:08;;;;;;;7.83;7.20;;;30.40;61.00;;;;;;5087348;28;20485;-69
2022/08/05 02:54:39;;;;;;;5.03;4.63;;;30.40;60.90;;;;;;5082225;28;20823;-69
2022/08/05 02:57:11;;;;;;;5.90;5.47;;;30.40;61.00;;;;;;5092487;28;20486;-69
2022/08/05 02:59:59;;;;;;;5.00;4.70;;;30.40;61.10;;;;;;5091600;28;20447;-70
2022/08/05 03:02:34;;;;;;;6.07;5.27;;;30.30;61.20;;;;;;5067438;28;20471;-69
2022/08/05 03:05:04;;;;;;;6.47;5.87;;;30.40;61.00;;;;;;5061873;28;20535;-70
2022/08/05 03:07:34;;;;;;;5.07;4.77;;;30.50;60.90;;;;;;5071528;28;20479;-70
2022/08/05 03:10:24;;;;;;;6.63;6.03;;;30.50;60.90;;;;;;5068733;28;20569;-69
2022/08/05 03:12:53;;;;;;;5.50;5.10;;;30.50;60.90;;;;;;5086227;28;20935;-69
2022/08/05 03:15:22;;;;;;;5.70;5.30;;;30.50;60.80;;;;;;5082712;28;20453;-69
2022/08/05 03:17:54;;;;;;;7.37;6.70;;;30.60;60.80;;;;;;5070935;28;20514;-69
2022/08/05 03:20:26;;;;;;;6.20;5.80;;;30.50;60.90;;;;;;5070238;28;20457;-69
2022/08/05 03:22:55;;;;;;;6.53;5.93;;;30.40;61.10;;;;;;5074015;28;20503;-70
2022/08/05 03:25:26;;;;;;;6.60;6.20;;;30.40;61.00;;;;;;5091726;28;20451;-69
2022/08/05 03:28:02;;;;;;;6.03;5.47;;;30.50;60.90;;;;;;5092233;28;20485;-70
2022/08/05 03:30:32;;;;;;;6.10;5.60;;;30.50;60.80;;;;;;5088768;28;20515;-70
2022/08/05 03:33:04;;;;;;;6.30;5.23;;;30.50;60.90;;;;;;5071813;28;20500;-70
2022/08/05 03:35:35;;;;;;;5.90;5.50;;;30.50;60.90;;;;;;5075017;28;20885;-70
2022/08/05 03:38:11;;;;;;;6.20;5.70;;;30.40;61.00;;;;;;5070768;28;20801;-70
2022/08/05 03:40:41;;;;;;;6.17;5.77;;;30.40;61.00;;;;;;5071095;28;20458;-70
2022/08/05 03:43:17;;;;;;;6.90;6.30;;;30.40;61.00;;;;;;5070512;28;21007;-70
2022/08/05 03:46:08;;;;;;;7.17;6.67;;;30.30;61.30;;;;;;5061613;28;20564;-70
2022/08/05 03:48:37;;;;;;;6.20;5.70;;;30.20;61.40;;;;;;5087827;28;20865;-70
2022/08/05 03:51:13;;;;;;;6.20;5.60;;;30.20;61.50;;;;;;5082731;28;20569;-70
2022/08/05 03:54:08;;;;;;;7.20;6.60;;;30.20;61.50;;;;;;5073116;28;20452;-70
2022/08/05 03:56:57;;;;;;;6.17;5.73;;;30.10;61.50;;;;;;5090677;28;20488;-72
2022/08/05 03:59:34;;;;;;;6.90;6.40;;;30.10;61.80;;;;;;5070038;28;20453;-72
2022/08/05 04:02:25;;;;;;;6.13;5.63;;;30.10;61.60;;;;;;5068898;28;20456;-72
2022/08/05 04:05:14;;;;;;;6.67;6.17;;;30.00;61.80;;;;;;5074428;28;20519;-72
2022/08/05 04:07:43;;;;;;;8.23;7.53;;;29.90;61.90;;;;;;5092581;28;20427;-72
2022/08/05 04:10:24;;;;;;;6.50;5.90;;;29.80;62.20;;;;;;5081896;28;20474;-72
2022/08/05 04:12:56;;;;;;;5.57;5.17;;;29.70;62.50;;;;;;5060146;28;20456;-72
2022/08/05 04:15:26;;;;;;;6.10;5.70;;;29.80;62.40;;;;;;5073054;28;20480;-72
2022/08/05 04:18:04;;;;;;;5.30;5.00;;;29.90;62.20;;;;;;5071398;28;20514;-72
2022/08/05 04:20:36;;;;;;;5.83;5.43;;;30.00;61.90;;;;;;5073117;28;20445;-72
2022/08/05 04:23:08;;;;;;;5.73;5.33;;;30.00;61.00;;;;;;5071026;28;20458;-72
2022/08/05 04:25:39;;;;;;;5.93;5.37;;;30.10;61.30;;;;;;5093754;28;20430;-72
2022/08/05 04:28:28;;;;;;;4.70;4.40;;;30.10;61.30;;;;;;5070797;28;20700;-72
2022/08/05 04:31:00;;;;;;;6.57;6.07;;;30.10;61.00;;;;;;5069037;28;20522;-72
2022/08/05 04:33:35;;;;;;;5.90;5.40;;;30.20;61.00;;;;;;5059003;28;20471;-72
2022/08/05 04:36:24;;;;;;;5.33;4.87;;;30.20;61.30;;;;;;5089777;28;20814;-72
2022/08/05 04:39:12;;;;;;;5.27;4.80;;;30.30;61.10;;;;;;5093183;28;20455;-72
2022/08/05 04:41:41;;;;;;;5.67;5.23;;;30.20;61.30;;;;;;5080736;28;20936;-72
2022/08/05 04:44:11;;;;;;;5.37;4.93;;;30.20;61.40;;;;;;5075239;28;20511;-71
2022/08/05 04:46:39;;;;;;;5.10;4.80;;;30.20;61.40;;;;;;5085659;28;20482;-71
2022/08/05 04:49:14;;;;;;;5.87;5.27;;;30.20;61.40;;;;;;5080350;28;20495;-71
2022/08/05 04:51:44;;;;;;;5.10;4.70;;;30.20;59.90;;;;;;5074144;28;20502;-71
2022/08/05 04:54:14;;;;;;;4.53;4.27;;;30.20;60.90;;;;;;5072456;28;20463;-71
2022/08/05 04:56:42;;;;;;;5.53;5.13;;;30.30;60.60;;;;;;5091205;28;20449;-71
2022/08/05 04:59:11;;;;;;;4.60;4.30;;;30.30;60.90;;;;;;5083160;28;20508;-71
2022/08/05 05:01:59;;;;;;;4.97;4.67;;;30.30;60.10;;;;;;5072321;28;20995;-71
2022/08/05 05:04:47;;;;;;;5.10;4.80;;;30.30;60.60;;;;;;5078797;28;20549;-71
2022/08/05 05:07:19;;;;;;;4.80;4.40;;;30.40;59.30;;;;;;5083850;28;20453;-71
2022/08/05 05:09:56;;;;;;;4.70;4.40;;;30.40;58.50;;;;;;5085530;28;20449;-71
2022/08/05 05:12:25;;;;;;;4.07;3.77;;;30.30;58.90;;;;;;5079735;28;20508;-72
2022/08/05 05:14:54;;;;;;;5.00;4.53;;;30.00;59.00;;;;;;5065137;28;20567;-71
2022/08/05 05:17:23;;;;;;;6.33;5.83;;;29.90;59.30;;;;;;5082946;28;20518;-71
2022/08/05 05:20:12;;;;;;;4.77;4.47;;;29.80;59.30;;;;;;5081457;28;20815;-71
2022/08/05 05:22:42;;;;;;;4.80;4.40;;;29.80;59.40;;;;;;5076555;28;20472;-71
2022/08/05 05:25:12;;;;;;;4.47;4.17;;;29.80;59.00;;;;;;5083752;28;20456;-71
2022/08/05 05:27:44;;;;;;;5.10;4.70;;;29.80;60.20;;;;;;5088069;28;20476;-71
2022/08/05 05:30:23;;;;;;;4.30;4.00;;;29.80;60.30;;;;;;5079672;28;20449;-71
2022/08/05 05:32:59;;;;;;;4.33;4.03;;;29.80;60.60;;;;;;5078379;28;20473;-71
2022/08/05 05:35:45;;;;;;;5.20;4.70;;;29.80;59.90;;;;;;5070585;28;20520;-71
2022/08/05 05:38:16;;;;;;;4.57;4.20;;;29.90;59.20;;;;;;5073911;28;20548;-72
2022/08/05 05:40:55;;;;;;;3.93;3.63;;;30.00;59.00;;;;;;5078091;28;20534;-72
2022/08/05 05:43:24;;;;;;;4.10;3.90;;;30.00;59.60;;;;;;5053485;28;20537;-69
2022/08/05 05:46:12;;;;;;;5.47;4.70;;;30.00;59.90;;;;;;5069631;28;20447;-69
2022/08/05 05:48:46;;;;;;;4.13;3.83;;;30.00;59.80;;;;;;5081166;28;20444;-69
2022/08/05 05:51:23;;;;;;;5.63;4.73;;;30.00;59.20;;;;;;5078617;28;20471;-69
2022/08/05 05:53:56;;;;;;;4.50;4.20;;;29.90;59.40;;;;;;5076145;28;20464;-69
2022/08/05 05:56:28;;;;;;;4.90;4.40;;;29.90;60.40;;;;;;5056078;28;20451;-69
2022/08/05 05:59:03;;;;;;;4.87;4.43;;;29.80;60.00;;;;;;5087394;28;20448;-69
2022/08/05 06:01:33;;;;;;;5.97;5.37;;;29.80;59.70;;;;;;5075693;28;20452;-69
2022/08/05 06:04:07;;;;;;;4.07;3.80;;;29.70;60.40;;;;;;5081047;28;20487;-69
2022/08/05 06:06:39;;;;;;;4.33;4.03;;;29.80;59.30;;;;;;5079990;28;20506;-69
2022/08/05 06:09:11;;;;;;;5.10;4.50;;;29.80;59.40;;;;;;5079564;28;20481;-69
2022/08/05 06:11:52;;;;;;;3.97;3.70;;;29.80;59.70;;;;;;5071496;28;20463;-69
2022/08/05 06:14:29;;;;;;;4.60;4.20;;;29.70;60.50;;;;;;5075028;28;20485;-69
2022/08/05 06:16:58;;;;;;;4.83;4.43;;;29.70;60.20;;;;;;5080252;28;20479;-69
2022/08/05 06:19:29;;;;;;;4.73;4.33;;;29.60;59.70;;;;;;5074749;28;20453;-71
2022/08/05 06:22:03;;;;;;;4.07;3.87;;;29.60;60.60;;;;;;5066447;28;20551;-68
2022/08/05 06:24:36;;;;;;;8.83;4.53;;;29.60;59.50;;;;;;5078284;28;20548;-69
2022/08/05 06:27:04;;;;;;;5.00;4.20;;;29.60;59.80;;;;;;5075406;28;20453;-68
2022/08/05 06:29:53;;;;;;;6.37;4.10;;;29.60;59.40;;;;;;5078985;28;20449;-68
2022/08/05 06:32:41;;;;;;;4.47;4.17;;;29.60;59.60;;;;;;5062202;28;20477;-68
2022/08/05 06:35:13;;;;;;;4.07;3.57;;;29.50;60.30;;;;;;5076832;28;20465;-68
2022/08/05 06:37:59;;;;;;;3.97;3.57;;;29.50;60.00;;;;;;5086285;28;20447;-68
2022/08/05 06:40:38;;;;;;;4.63;4.33;;;29.50;60.20;;;;;;5075814;28;20443;-68
2022/08/05 06:43:11;;;;;;;4.47;4.17;;;29.50;60.40;;;;;;5071677;28;20450;-68
2022/08/05 06:46:00;;;;;;;4.03;3.70;;;29.50;60.50;;;;;;5080109;28;20459;-68
2022/08/05 06:48:33;;;;;;;5.03;4.50;;;29.60;60.40;;;;;;5085990;28;20477;-66
2022/08/05 06:51:22;;;;;;;4.60;4.17;;;29.50;60.60;;;;;;5071544;28;20504;-66
2022/08/05 06:53:58;;;;;;;4.10;3.90;;;29.40;60.90;;;;;;5078980;28;20447;-66
2022/08/05 06:56:28;;;;;;;5.97;4.40;;;29.40;61.10;;;;;;5081766;28;20439;-67
2022/08/05 06:58:56;;;;;;;5.10;4.60;;;29.50;61.00;;;;;;5072208;28;20463;-67
2022/08/05 07:01:25;;;;;;;4.13;3.83;;;29.60;60.80;;;;;;5079446;28;20456;-67
2022/08/05 07:04:00;;;;;;;4.40;4.00;;;29.60;60.80;;;;;;5085509;28;20471;-66
2022/08/05 07:06:29;;;;;;;3.80;3.50;;;29.60;60.90;;;;;;5076697;28;20483;-68
2022/08/05 07:08:59;;;;;;;5.07;4.67;;;29.60;61.00;;;;;;5080820;28;20460;-68
2022/08/05 07:11:33;;;;;;;5.40;4.90;;;29.70;60.70;;;;;;5085621;28;20833;-67
2022/08/05 07:17:01;;;;;;;4.47;4.13;;;29.70;60.70;;;;;;5074574;28;21000;-68
2022/08/05 07:19:50;;;;;;;5.60;4.20;;;29.70;60.90;;;;;;5080022;28;20549;-68
2022/08/05 07:22:38;;;;;;;5.80;5.00;;;29.70;60.90;;;;;;5072600;28;20553;-68
2022/08/05 07:25:09;;;;;;;4.90;4.50;;;29.70;60.80;;;;;;5067827;28;20448;-68
2022/08/05 07:27:59;;;;;;;5.13;4.73;;;29.70;60.90;;;;;;5073216;28;20466;-68
2022/08/05 07:30:39;;;;;;;4.80;4.50;;;29.70;60.90;;;;;;5074143;28;20497;-68
2022/08/05 07:33:09;;;;;;;5.10;4.70;;;29.70;60.80;;;;;;5076776;28;20490;-68
2022/08/05 07:35:44;;;;;;;4.93;4.57;;;29.80;60.60;;;;;;5065244;28;20445;-68
2022/08/05 07:38:33;;;;;;;4.50;4.20;;;29.80;60.50;;;;;;5079356;28;20492;-69
2022/08/05 07:41:14;;;;;;;5.17;4.77;;;29.70;60.60;;;;;;5075086;28;20576;-68
2022/08/05 07:44:05;;;;;;;4.63;4.20;;;29.70;60.50;;;;;;5071647;28;20555;-68
2022/08/05 07:46:41;;;;;;;4.53;4.20;;;29.70;60.50;;;;;;5078154;28;20455;-69
2022/08/05 07:49:16;;;;;;;4.20;3.90;;;29.70;60.30;;;;;;5079529;28;20452;-68
2022/08/05 07:51:46;;;;;;;3.93;3.67;;;29.70;60.50;;;;;;5077949;28;20481;-68
2022/08/05 07:54:25;;;;;;;4.07;3.60;;;29.80;60.70;;;;;;5081494;28;20955;-69
2022/08/05 07:56:58;;;;;;;3.63;3.37;;;29.80;60.50;;;;;;5083437;28;20526;-69
2022/08/05 07:59:48;;;;;;;5.77;4.07;;;29.90;59.00;;;;;;5078574;28;20471;-69
2022/08/05 08:02:17;;;;;;;3.90;3.67;;;29.80;59.70;;;;;;5078566;28;21038;-69
2022/08/05 08:04:46;;;;;;;3.83;3.50;;;29.80;59.20;;;;;;5081719;28;20442;-69
2022/08/05 08:07:16;;;;;;;4.40;3.90;;;29.90;58.90;;;;;;5079541;28;20464;-69
2022/08/05 08:09:50;;;;;;;4.20;3.60;;;29.90;58.70;;;;;;5085666;28;20557;-68
2022/08/05 08:12:19;;;;;;;3.87;3.57;;;29.80;59.50;;;;;;5074634;28;21016;-71
2022/08/05 08:15:10;;;;;;;4.63;3.50;;;29.80;60.20;;;;;;5054465;28;20544;-71
2022/08/05 08:17:44;;;;;;;4.40;4.00;;;29.90;59.20;;;;;;5074172;28;20450;-71
2022/08/05 08:20:16;;;;;;;3.77;3.50;;;30.00;59.80;;;;;;5076145;28;20464;-71
2022/08/05 08:23:06;;;;;;;4.10;3.90;;;29.90;59.00;;;;;;5076973;28;20547;-69
2022/08/05 08:25:54;;;;;;;6.00;4.03;;;29.80;58.90;;;;;;5083028;28;20448;-69
2022/08/05 08:28:31;;;;;;;3.77;3.47;;;29.90;58.80;;;;;;5072185;28;20433;-70
2022/08/05 08:31:08;;;;;;;4.20;3.50;;;30.00;58.20;;;;;;5077913;28;20547;-70
2022/08/05 08:33:36;;;;;;;3.63;3.20;;;30.00;58.10;;;;;;5071384;28;20590;-70
2022/08/05 08:36:09;;;;;;;4.57;4.23;;;30.00;57.90;;;;;;5069244;28;20874;-70
2022/08/05 08:38:57;;;;;;;3.87;3.57;;;30.00;58.20;;;;;;5079850;28;20549;-70
2022/08/05 08:41:29;;;;;;;5.00;2.70;;;30.00;58.40;;;;;;5081304;28;20472;-70
2022/08/05 08:44:20;;;;;;;3.90;3.27;;;30.00;59.10;;;;;;5070859;28;20471;-70
2022/08/05 08:47:10;;;;;;;3.20;3.00;;;30.00;58.80;;;;;;5083642;28;20487;-69
2022/08/05 08:49:59;;;;;;;3.60;3.30;;;30.00;59.30;;;;;;5071671;28;20457;-69
2022/08/05 08:52:51;;;;;;;2.90;2.70;;;30.10;58.60;;;;;;5078969;28;20877;-70
2022/08/05 08:55:21;;;;;;;3.80;3.50;;;30.10;59.10;;;;;;5083368;28;20453;-69
2022/08/05 08:58:10;;;;;;;4.43;3.70;;;30.10;58.80;;;;;;5059759;28;20461;-69
2022/08/05 09:00:42;;;;;;;4.17;3.87;;;30.10;58.70;;;;;;5078810;28;20490;-71
2022/08/05 09:03:13;;;;;;;6.93;3.53;;;30.00;59.00;;;;;;5076777;28;20457;-69
2022/08/05 09:05:47;;;;;;;6.03;5.33;;;30.00;58.90;;;;;;5073854;28;20487;-70
2022/08/05 09:08:36;;;;;;;6.00;5.50;;;29.90;59.30;;;;;;5078320;28;20453;-70
2022/08/05 09:11:08;;;;;;;4.40;4.10;;;30.00;59.40;;;;;;5064063;28;20457;-71
2022/08/05 09:13:42;;;;;;;4.07;3.77;;;30.00;58.80;;;;;;5083580;28;20479;-69
2022/08/05 09:16:30;;;;;;;4.40;4.10;;;30.10;58.60;;;;;;5075554;28;21282;-69
2022/08/05 09:19:00;;;;;;;5.90;4.40;;;30.10;58.70;;;;;;5074964;28;20511;-70
2022/08/05 09:21:34;;;;;;;4.80;4.33;;;30.20;58.90;;;;;;5072218;28;20826;-70
2022/08/05 09:24:22;;;;;;;4.97;4.20;;;30.30;58.40;;;;;;5071070;28;20472;-72
2022/08/05 09:26:52;;;;;;;6.80;4.07;;;30.30;58.60;;;;;;5077954;28;20449;-70
2022/08/05 09:29:21;;;;;;;5.20;4.80;;;30.20;59.00;;;;;;5081362;28;20464;-70
2022/08/05 09:32:05;;;;;;;4.40;4.13;;;30.20;58.80;;;;;;5081004;28;20959;-73
2022/08/05 09:35:00;;;;;;;4.77;4.47;;;30.20;58.90;;;;;;5086648;28;20559;-73
2022/08/05 09:37:29;;;;;;;4.67;4.37;;;30.30;58.70;;;;;;5084317;28;20563;-76
2022/08/05 09:40:31;;;;;;;4.17;3.67;;;30.30;58.80;;;;;;5072053;28;21029;-74
2022/08/05 09:43:00;;;;;;;5.00;4.60;;;30.40;58.10;;;;;;5073885;28;20884;-74
2022/08/05 09:45:38;;;;;;;4.10;3.80;;;30.40;59.00;;;;;;5073934;28;21009;-75
2022/08/05 09:48:28;;;;;;;4.87;4.40;;;30.50;58.50;;;;;;5070163;28;21031;-74
2022/08/05 09:51:00;;;;;;;5.33;4.93;;;30.40;59.00;;;;;;5078555;28;20440;-72
2022/08/05 09:53:29;;;;;;;5.60;5.10;;;30.50;58.60;;;;;;5083309;28;20474;-71
2022/08/05 09:56:25;;;;;;;5.40;4.90;;;30.50;58.70;;;;;;5077489;28;20450;-72
2022/08/05 09:58:58;;;;;;;5.50;5.10;;;30.50;58.50;;;;;;5076670;28;20482;-73
2022/08/05 10:01:27;;;;;;;4.93;4.53;;;30.60;58.10;;;;;;5072005;28;20446;-73
2022/08/05 10:04:03;;;;;;;5.03;4.43;;;30.60;58.00;;;;;;5073979;28;20473;-71
2022/08/05 10:06:40;;;;;;;4.67;4.27;;;30.60;58.10;;;;;;5078615;28;20496;-71
2022/08/05 10:09:26;;;;;;;5.07;4.60;;;30.60;57.20;;;;;;5071156;28;20927;-72
2022/08/05 10:12:09;;;;;;;6.90;6.50;;;30.60;57.30;;;;;;5054304;28;20622;-73
2022/08/05 10:15:16;;;;;;;11.57;10.67;;;30.60;57.00;;;;;;5086187;28;20471;-73
2022/08/05 10:18:12;;;;;;;6.90;6.40;;;30.70;56.60;;;;;;5069738;28;20456;-72
2022/08/05 10:20:45;;;;;;;7.20;6.80;;;30.80;56.40;;;;;;5077663;28;20502;-69
2022/08/05 10:23:19;;;;;;;5.70;5.40;;;30.80;56.90;;;;;;5080978;28;20456;-69
2022/08/05 10:26:11;;;;;;;10.37;9.37;;;30.70;56.90;;;;;;5074553;28;20568;-72
2022/08/05 10:28:43;;;;;;;9.20;8.47;;;30.80;57.60;;;;;;5070429;28;20452;-72
2022/08/05 10:31:14;;;;;;;3.40;3.20;;;30.90;57.70;;;;;;5077232;28;20463;-72
2022/08/05 10:34:03;;;;;;;2.60;2.50;;;30.80;56.60;;;;;;5067297;28;20476;-72
2022/08/05 10:36:36;;;;;;;3.40;3.10;;;30.90;53.40;;;;;;5077246;28;20457;-72
2022/08/05 10:39:10;;;;;;;4.63;4.27;;;30.90;54.10;;;;;;5065439;28;20451;-71
2022/08/05 10:41:58;;;;;;;6.37;5.30;;;30.90;55.10;;;;;;5069799;28;20449;-73
2022/08/05 10:44:31;;;;;;;3.70;3.40;;;30.80;56.00;;;;;;5066555;28;20507;-73
2022/08/05 10:47:09;;;;;;;5.60;5.30;;;30.80;56.10;;;;;;5081258;28;20449;-73
2022/08/05 10:50:02;;;;;;;6.00;5.50;;;30.80;56.40;;;;;;5079973;28;20485;-73
2022/08/05 10:52:55;;;;;;;5.30;4.90;;;30.80;56.70;;;;;;5079246;28;20994;-73
2022/08/05 10:55:29;;;;;;;5.00;4.60;;;30.90;56.70;;;;;;5080907;28;20466;-73
2022/08/05 10:58:10;;;;;;;3.30;3.00;;;30.90;56.60;;;;;;5084852;28;20531;-73
2022/08/05 11:00:46;;;;;;;5.07;4.60;;;31.00;55.80;;;;;;5071581;28;20874;-73
2022/08/05 11:03:22;;;;;;;5.40;4.90;;;31.10;56.00;;;;;;5087396;28;20517;-73
2022/08/05 11:06:08;;;;;;;5.33;4.90;;;31.00;56.20;;;;;;5076253;28;20844;-73
2022/08/05 11:09:19;;;;;;;3.43;3.23;;;30.90;56.40;;;;;;5066409;28;20453;-73
2022/08/05 11:12:44;;;;;;;4.13;3.40;;;31.00;55.10;;;;;;5072657;28;20461;-74
2022/08/05 11:15:20;;;;;;;4.07;3.77;;;31.00;55.40;;;;;;5069951;28;20832;-75
2022/08/05 11:17:50;;;;;;;6.63;4.70;;;31.00;55.90;;;;;;5058650;28;20521;-75
2022/08/05 11:20:42;;;;;;;5.53;4.70;;;31.00;56.20;;;;;;5063089;28;20451;-74
2022/08/05 11:23:36;;;;;;;4.93;4.63;;;31.10;55.80;;;;;;5068591;28;20458;-71
2022/08/05 11:26:25;;;;;;;4.60;4.20;;;31.00;56.30;;;;;;5072312;28;20457;-70
2022/08/05 11:29:03;;;;;;;5.33;4.20;;;30.90;56.70;;;;;;5080349;28;20456;-70
2022/08/05 11:31:43;;;;;;;6.93;4.93;;;31.00;56.90;;;;;;5076353;28;20514;-70
2022/08/05 11:34:38;;;;;;;5.00;4.50;;;31.00;56.60;;;;;;5078751;28;20473;-70
2022/08/05 11:37:06;;;;;;;4.13;3.83;;;31.00;56.60;;;;;;5089654;28;20453;-70
2022/08/05 11:39:54;;;;;;;3.83;3.53;;;31.00;56.60;;;;;;5079575;28;20449;-70
2022/08/05 11:42:32;;;;;;;3.83;3.57;;;31.00;56.40;;;;;;5084409;28;20440;-70
2022/08/05 11:45:09;;;;;;;4.40;3.50;;;31.10;56.20;;;;;;5081662;28;20448;-70
2022/08/05 11:47:50;;;;;;;3.13;3.03;;;31.20;55.60;;;;;;5069888;28;20489;-70
2022/08/05 11:50:22;;;;;;;3.40;3.20;;;31.30;55.30;;;;;;5072178;28;20462;-71
2022/08/05 11:52:52;;;;;;;5.77;3.50;;;31.30;55.10;;;;;;5067237;28;20490;-71
2022/08/05 11:55:25;;;;;;;4.63;4.10;;;31.30;55.20;;;;;;5076012;28;20465;-72
2022/08/05 11:58:04;;;;;;;4.20;3.80;;;31.40;55.00;;;;;;5080422;28;20457;-71
2022/08/05 12:00:40;;;;;;;4.10;3.70;;;31.40;55.00;;;;;;5078579;28;20940;-66
2022/08/05 12:03:17;;;;;;;4.37;4.13;;;31.50;55.10;;;;;;5076772;28;20442;-65
2022/08/05 12:06:22;;;;;;;5.47;3.63;;;31.80;54.90;;;;;;5061539;28;20481;-66
2022/08/05 12:08:52;;;;;;;3.50;3.30;;;32.00;54.80;;;;;;5076642;28;20469;-66
2022/08/05 12:11:23;;;;;;;3.73;3.40;;;32.10;54.70;;;;;;5074033;28;20507;-66
2022/08/05 12:13:57;;;;;;;3.90;3.60;;;32.30;54.80;;;;;;5076470;28;20456;-67
2022/08/05 12:16:31;;;;;;;3.37;3.17;;;32.40;54.90;;;;;;5079131;28;20462;-67
2022/08/05 12:19:06;;;;;;;3.63;3.40;;;32.50;54.70;;;;;;5074226;28;20532;-67
2022/08/05 12:21:41;;;;;;;3.47;3.27;;;32.70;54.40;;;;;;5057074;28;20516;-67
2022/08/05 12:24:13;;;;;;;5.97;4.37;;;32.90;54.10;;;;;;5081456;28;20932;-67
2022/08/05 12:26:46;;;;;;;3.03;2.83;;;33.10;53.90;;;;;;5072552;28;20457;-68
2022/08/05 12:29:17;;;;;;;3.60;3.40;;;33.30;53.60;;;;;;5081663;28;20445;-68
2022/08/05 12:31:54;;;;;;;3.03;2.83;;;33.50;53.20;;;;;;5078450;28;20460;-67
2022/08/05 12:34:27;;;;;;;3.47;3.27;;;33.70;53.00;;;;;;5079639;28;20792;-67
2022/08/05 12:36:56;;;;;;;4.00;3.37;;;33.80;52.90;;;;;;5084815;28;20449;-67
2022/08/05 12:39:27;;;;;;;3.37;3.17;;;33.90;52.90;;;;;;5078161;28;20454;-67
2022/08/05 12:42:10;;;;;;;2.93;2.77;;;33.90;52.90;;;;;;5082288;28;20883;-67
2022/08/05 12:44:43;;;;;;;2.80;2.70;;;34.00;52.80;;;;;;5072853;28;20535;-67
2022/08/05 12:47:13;;;;;;;3.30;3.10;;;34.00;52.70;;;;;;5075520;28;20460;-65
2022/08/05 12:49:47;;;;;;;2.60;2.50;;;34.00;52.80;;;;;;5075538;28;20500;-66
2022/08/05 12:52:34;;;;;;;3.37;3.07;;;34.00;52.80;;;;;;5076081;28;20477;-65
2022/08/05 12:55:20;;;;;;;3.23;3.03;;;34.00;52.80;;;;;;5068192;28;20469;-65
2022/08/05 12:57:52;;;;;;;3.00;2.80;;;34.00;52.90;;;;;;5073538;28;20454;-66
2022/08/05 13:00:45;;;;;;;3.30;3.10;;;34.00;53.00;;;;;;5086893;28;20940;-66
2022/08/05 13:03:37;;;;;;;2.90;2.70;;;34.00;53.00;;;;;;5075991;28;20548;-66
2022/08/05 13:06:12;;;;;;;3.23;2.93;;;33.90;53.20;;;;;;5072883;28;20607;-66
2022/08/05 13:08:40;;;;;;;3.00;2.77;;;33.90;53.20;;;;;;5065661;28;20454;-66
2022/08/05 13:11:18;;;;;;;3.23;2.90;;;33.80;53.30;;;;;;5066018;28;20511;-65
2022/08/05 13:14:10;;;;;;;5.00;3.20;;;33.80;53.40;;;;;;5071830;28;20860;-65
2022/08/05 13:16:49;;;;;;;3.27;3.07;;;33.80;53.50;;;;;;5069201;28;20470;-66
2022/08/05 13:19:21;;;;;;;3.33;3.13;;;33.70;53.70;;;;;;5073457;28;20448;-66
2022/08/05 13:21:50;;;;;;;6.73;3.00;;;33.70;53.80;;;;;;5069960;28;20534;-66
2022/08/05 13:24:24;;;;;;;3.17;2.97;;;33.70;53.90;;;;;;5070308;28;20489;-66
2022/08/05 13:27:12;;;;;;;3.33;3.00;;;33.70;54.10;;;;;;5074725;28;20479;-66
2022/08/05 13:30:00;;;;;;;4.07;3.67;;;33.70;54.30;;;;;;5075138;28;20446;-66
2022/08/05 13:32:49;;;;;;;3.40;3.10;;;33.70;54.50;;;;;;5074026;28;20442;-66
2022/08/05 13:35:20;;;;;;;4.00;3.40;;;33.60;54.60;;;;;;5072961;28;20907;-66
2022/08/05 13:38:08;;;;;;;2.83;2.67;;;33.70;54.70;;;;;;5077269;28;21004;-66
2022/08/05 13:40:47;;;;;;;3.40;3.20;;;33.60;54.80;;;;;;5068383;28;20838;-65
2022/08/05 13:43:19;;;;;;;2.80;2.70;;;33.60;54.90;;;;;;5073939;28;20438;-66